createdAt,value
2019-04-18T00:00:12.333Z,3.90
2019-04-18T00:05:34.029Z,4.10
2019-04-18T00:13:41.240Z,3.80
2019-04-18T00:19:15.712Z,3.50
2019-04-18T00:21:52.672Z,5.40
2019-04-18T00:27:18.220Z,3.50
2019-04-18T00:29:47.209Z,3.50
2019-04-18T00:32:17.826Z,3.60
2019-04-18T00:34:46.629Z,3.40
2019-04-18T00:37:16.299Z,3.20
2019-04-18T00:39:49.532Z,3.50
2019-04-18T00:42:22.431Z,5.00
2019-04-18T00:44:56.269Z,3.30
2019-04-18T00:47:31.155Z,3.30
2019-04-18T00:50:07.317Z,3.30
2019-04-18T00:52:36.231Z,3.10
2019-04-18T00:55:07.646Z,3.10
2019-04-18T00:57:38.125Z,3.30
2019-04-18T01:00:13.783Z,3.00
2019-04-18T01:02:42.343Z,3.30
2019-04-18T01:05:12.205Z,3.30
2019-04-18T01:13:18.988Z,3.20
2019-04-18T01:18:56.890Z,3.20
2019-04-18T01:21:34.108Z,3.30
2019-04-18T01:29:44.652Z,3.00
2019-04-18T01:32:11.512Z,3.00
2019-04-18T01:34:42.095Z,1.30
2019-04-18T01:48:42.545Z,4.30
2019-04-18T01:51:13.030Z,2.80
2019-04-18T01:56:33.503Z,2.50
2019-04-18T01:59:06.444Z,4.30
2019-04-18T02:01:32.166Z,2.80
2019-04-18T02:04:06.224Z,2.10
2019-04-18T02:09:16.456Z,2.50
2019-04-18T02:11:44.740Z,2.60
2019-04-18T02:19:47.712Z,2.20
2019-04-18T02:22:17.043Z,2.30
2019-04-18T02:27:29.881Z,1.40
2019-04-18T02:29:57.450Z,2.50
2019-04-18T02:35:21.212Z,1.00
2019-04-18T02:40:46.199Z,2.50
2019-04-18T02:46:04.641Z,2.40
2019-04-18T02:48:30.768Z,2.60
2019-04-18T02:51:03.590Z,2.60
2019-04-18T02:53:36.860Z,2.40
2019-04-18T02:56:06.247Z,2.00
2019-04-18T03:01:41.855Z,2.40
2019-04-18T03:04:18.789Z,2.30
2019-04-18T03:06:48.832Z,2.40
2019-04-18T03:09:17.350Z,2.40
2019-04-18T03:11:48.092Z,2.40
2019-04-18T03:14:22.448Z,2.70
2019-04-18T03:16:57.547Z,2.80
2019-04-18T03:19:26.684Z,2.60
2019-04-18T03:21:55.979Z,2.60
2019-04-18T03:24:24.578Z,2.60
2019-04-18T03:27:00.728Z,2.60
2019-04-18T03:29:26.519Z,3.70
2019-04-18T03:31:59.074Z,2.20
2019-04-18T03:34:29.749Z,2.30
2019-04-18T03:37:05.311Z,3.20
2019-04-18T03:42:23.136Z,2.20
2019-04-18T03:45:34.509Z,2.30
2019-04-18T03:48:04.055Z,2.50
2019-04-18T03:50:44.614Z,2.40
2019-04-18T03:53:18.094Z,4.10
2019-04-18T03:55:56.346Z,2.40
2019-04-18T04:01:09.236Z,2.30
2019-04-18T04:03:36.091Z,2.60
2019-04-18T04:06:16.762Z,2.60
2019-04-18T04:08:35.711Z,2.30
2019-04-18T04:11:06.422Z,3.90
2019-04-18T04:13:33.879Z,2.60
2019-04-18T04:16:04.935Z,2.70
2019-04-18T04:18:38.805Z,3.00
2019-04-18T04:21:06.314Z,2.80
2019-04-18T04:23:40.531Z,2.70
2019-04-18T04:29:04.645Z,2.80
2019-04-18T04:31:40.494Z,2.80
2019-04-18T04:34:17.957Z,2.90
2019-04-18T04:36:44.734Z,3.10
2019-04-18T04:39:13.112Z,2.80
2019-04-18T04:44:33.527Z,3.30
2019-04-18T04:47:21.465Z,4.20
2019-04-18T04:49:47.990Z,2.70
2019-04-18T04:52:22.797Z,3.10
2019-04-18T04:54:50.778Z,3.20
2019-04-18T04:57:46.716Z,3.20
2019-04-18T05:00:15.822Z,4.00
2019-04-18T05:02:42.786Z,3.30
2019-04-18T05:05:14.042Z,3.30
2019-04-18T05:07:57.287Z,2.00
2019-04-18T05:10:39.470Z,3.30
2019-04-18T05:13:10.068Z,3.60
2019-04-18T05:15:39.768Z,3.10
2019-04-18T05:18:07.025Z,3.70
2019-04-18T05:20:40.748Z,3.50
2019-04-18T05:23:09.396Z,3.80
2019-04-18T05:25:42.152Z,3.90
2019-04-18T05:28:11.091Z,6.10
2019-04-18T05:30:47.770Z,5.00
2019-04-18T05:33:15.197Z,3.80
2019-04-18T05:36:01.213Z,6.00
2019-04-18T05:38:30.093Z,3.90
2019-04-18T05:40:58.476Z,5.40
2019-04-18T05:43:31.013Z,4.20
2019-04-18T05:46:00.000Z,4.50
2019-04-18T05:48:45.379Z,4.50
2019-04-18T05:51:30.320Z,5.80
2019-04-18T05:54:02.934Z,4.50
2019-04-18T05:56:30.302Z,6.50
2019-04-18T05:59:02.584Z,4.50
2019-04-18T06:04:38.568Z,6.00
2019-04-18T06:07:15.332Z,6.40
2019-04-18T06:09:42.836Z,5.40
2019-04-18T06:12:32.758Z,6.40
2019-04-18T06:15:11.897Z,5.60
2019-04-18T06:17:45.633Z,7.40
2019-04-18T06:20:15.421Z,5.80
2019-04-18T06:22:47.109Z,5.90
2019-04-18T06:25:22.591Z,6.80
2019-04-18T06:27:58.428Z,6.10
2019-04-18T06:30:30.619Z,7.50
2019-04-18T06:33:03.254Z,8.00
2019-04-18T06:35:31.716Z,5.60
2019-04-18T06:40:53.379Z,5.70
2019-04-18T06:43:25.580Z,7.10
2019-04-18T06:45:52.872Z,6.80
2019-04-18T06:48:28.254Z,8.20
2019-04-18T06:50:58.333Z,7.10
2019-04-18T06:56:18.661Z,7.60
2019-04-18T06:58:50.130Z,8.20
2019-04-18T07:01:18.824Z,7.90
2019-04-18T07:06:54.505Z,8.60
2019-04-18T07:09:23.863Z,9.80
2019-04-18T07:12:11.588Z,8.80
2019-04-18T07:14:39.982Z,9.10
2019-04-18T07:17:23.304Z,9.10
2019-04-18T07:20:00.055Z,9.30
2019-04-18T07:22:29.806Z,9.20
2019-04-18T07:24:58.701Z,9.00
2019-04-18T07:27:25.605Z,10.70
2019-04-18T07:29:56.014Z,9.70
2019-04-18T07:32:24.555Z,9.80
2019-04-18T07:34:53.039Z,8.40
2019-04-18T07:40:10.140Z,10.20
2019-04-18T07:42:37.966Z,10.40
2019-04-18T07:45:09.320Z,12.00
2019-04-18T07:47:40.561Z,10.50
2019-04-18T07:50:08.253Z,10.50
2019-04-18T07:52:36.457Z,10.60
2019-04-18T07:55:04.573Z,12.20
2019-04-18T07:57:32.964Z,10.80
2019-04-18T08:00:01.135Z,11.00
2019-04-18T08:02:30.881Z,11.90
2019-04-18T08:04:57.897Z,12.60
2019-04-18T08:07:25.140Z,11.40
2019-04-18T08:09:53.378Z,11.60
2019-04-18T08:12:21.690Z,11.70
2019-04-18T08:15:05.843Z,11.90
2019-04-18T08:17:32.735Z,11.90
2019-04-18T08:20:22.958Z,12.00
2019-04-18T08:22:50.300Z,12.10
2019-04-18T08:28:07.848Z,12.70
2019-04-18T08:30:36.135Z,13.20
2019-04-18T08:33:09.919Z,13.80
2019-04-18T08:35:53.157Z,15.30
2019-04-18T08:38:28.477Z,17.90
2019-04-18T08:41:17.491Z,18.70
2019-04-18T08:43:52.444Z,20.20
2019-04-18T08:46:27.642Z,21.00
2019-04-18T08:51:46.401Z,21.60
2019-04-18T08:54:32.035Z,21.90
2019-04-18T08:57:10.288Z,20.80
2019-04-18T08:59:41.363Z,22.20
2019-04-18T09:02:14.842Z,21.60
2019-04-18T09:04:45.044Z,21.80
2019-04-18T09:07:19.806Z,22.30
2019-04-18T09:09:42.848Z,20.70
2019-04-18T09:12:13.510Z,21.60
2019-04-18T09:17:49.021Z,21.90
2019-04-18T09:20:30.095Z,22.30
2019-04-18T09:22:52.571Z,22.80
2019-04-18T09:25:25.038Z,24.30
2019-04-18T09:27:57.667Z,23.60
2019-04-18T09:30:26.409Z,23.30
2019-04-18T09:32:56.666Z,23.80
2019-04-18T09:35:24.343Z,24.10
2019-04-18T09:37:51.390Z,24.00
2019-04-18T09:40:29.685Z,23.10
2019-04-18T09:42:57.756Z,23.10
2019-04-18T09:45:42.892Z,25.20
2019-04-18T09:48:15.391Z,22.30
2019-04-18T09:50:49.692Z,22.60
2019-04-18T09:53:16.273Z,24.10
2019-04-18T09:55:52.348Z,25.60
2019-04-18T10:01:09.958Z,26.00
2019-04-18T10:06:26.375Z,25.00
2019-04-18T10:08:55.571Z,23.60
2019-04-18T10:11:38.315Z,24.80
2019-04-18T10:14:07.270Z,25.10
2019-04-18T10:16:40.486Z,24.80
2019-04-18T10:19:09.327Z,24.60
2019-04-18T10:21:46.906Z,25.00
2019-04-18T10:24:18.455Z,25.40
2019-04-18T10:27:00.924Z,26.00
2019-04-18T10:29:29.815Z,25.10
2019-04-18T10:34:44.876Z,27.40
2019-04-18T10:37:13.634Z,26.10
2019-04-18T10:39:40.783Z,26.80
2019-04-18T10:42:17.148Z,26.50
2019-04-18T10:44:45.133Z,25.50
2019-04-18T10:47:14.182Z,26.10
2019-04-18T10:49:43.484Z,26.50
2019-04-18T10:52:20.953Z,26.50
2019-04-18T10:54:51.266Z,26.40
2019-04-18T10:57:19.322Z,26.30
2019-04-18T10:59:53.323Z,26.30
2019-04-18T11:02:19.716Z,26.20
2019-04-18T11:04:50.003Z,26.10
2019-04-18T11:07:17.491Z,26.90
2019-04-18T11:09:53.578Z,26.40
2019-04-18T11:12:29.581Z,27.20
2019-04-18T11:15:09.152Z,27.10
2019-04-18T11:17:35.976Z,27.00
2019-04-18T11:20:04.695Z,26.90
2019-04-18T11:22:32.076Z,26.60
2019-04-18T11:25:09.658Z,26.50
2019-04-18T11:27:45.062Z,27.30
2019-04-18T11:30:12.757Z,27.30
2019-04-18T11:32:39.250Z,27.20
2019-04-18T11:35:10.175Z,27.00
2019-04-18T11:37:36.727Z,27.00
2019-04-18T11:40:07.133Z,27.70
2019-04-18T11:42:50.845Z,27.70
2019-04-18T11:45:20.489Z,27.30
2019-04-18T11:47:50.464Z,27.30
2019-04-18T11:50:18.295Z,27.10
2019-04-18T11:52:55.349Z,26.30
2019-04-18T11:55:27.448Z,26.80
2019-04-18T11:57:54.080Z,26.30
2019-04-18T12:00:23.988Z,26.30
2019-04-18T12:02:57.686Z,26.30
2019-04-18T12:05:26.829Z,26.90
2019-04-18T12:08:02.961Z,27.40
2019-04-18T12:10:29.800Z,26.20
2019-04-18T12:13:01.876Z,27.60
2019-04-18T12:15:32.183Z,27.10
2019-04-18T12:18:01.053Z,27.30
2019-04-18T12:20:29.039Z,26.70
2019-04-18T12:22:58.569Z,27.60
2019-04-18T12:25:33.897Z,27.50
2019-04-18T12:28:01.230Z,28.60
2019-04-18T12:30:29.614Z,28.50
2019-04-18T12:33:02.631Z,29.30
2019-04-18T12:35:45.137Z,28.00
2019-04-18T12:38:13.832Z,27.60
2019-04-18T12:40:42.203Z,27.10
2019-04-18T12:43:09.573Z,26.60
2019-04-18T12:45:39.615Z,26.90
2019-04-18T12:48:09.467Z,27.10
2019-04-18T12:50:37.676Z,27.00
2019-04-18T12:53:04.429Z,27.40
2019-04-18T12:55:31.068Z,26.80
2019-04-18T12:58:06.121Z,27.10
2019-04-18T13:00:34.040Z,29.30
2019-04-18T13:03:02.027Z,27.70
2019-04-18T13:05:28.597Z,27.70
2019-04-18T13:08:03.815Z,27.40
2019-04-18T13:10:38.554Z,28.40
2019-04-18T13:13:16.039Z,28.20
2019-04-18T13:15:50.656Z,28.30
2019-04-18T13:18:18.729Z,28.10
2019-04-18T13:20:45.346Z,29.10
2019-04-18T13:23:15.073Z,29.40
2019-04-18T13:25:42.240Z,28.80
2019-04-18T13:28:08.978Z,27.30
2019-04-18T13:30:36.592Z,27.30
2019-04-18T13:33:08.501Z,27.60
2019-04-18T13:35:38.641Z,28.10
2019-04-18T13:38:08.181Z,27.50
2019-04-18T13:40:35.815Z,27.40
2019-04-18T13:43:09.157Z,28.10
2019-04-18T13:45:38.360Z,28.20
2019-04-18T13:48:11.808Z,28.60
2019-04-18T13:50:38.966Z,28.70
2019-04-18T13:53:14.362Z,29.50
2019-04-18T13:55:46.207Z,30.20
2019-04-18T13:58:15.714Z,31.70
2019-04-18T14:00:44.988Z,30.00
2019-04-18T14:03:27.044Z,29.40
2019-04-18T14:05:53.645Z,30.10
2019-04-18T14:08:21.961Z,29.50
2019-04-18T14:10:54.888Z,30.70
2019-04-18T14:13:30.976Z,28.70
2019-04-18T14:16:06.744Z,27.90
2019-04-18T14:18:39.964Z,29.00
2019-04-18T14:21:11.377Z,29.40
2019-04-18T14:23:44.277Z,29.40
2019-04-18T14:26:14.401Z,29.50
2019-04-18T14:28:42.860Z,29.60
2019-04-18T14:31:18.338Z,30.10
2019-04-18T14:33:45.133Z,30.50
2019-04-18T14:36:26.108Z,31.60
2019-04-18T14:38:55.693Z,30.90
2019-04-18T14:44:15.709Z,30.10
2019-04-18T14:46:47.132Z,29.20
2019-04-18T14:49:14.994Z,27.70
2019-04-18T14:51:44.448Z,28.10
2019-04-18T14:54:15.895Z,28.10
2019-04-18T14:56:45.804Z,29.20
2019-04-18T14:59:27.910Z,28.70
2019-04-18T15:01:55.507Z,28.80
2019-04-18T15:04:24.740Z,28.90
2019-04-18T15:09:49.954Z,29.10
2019-04-18T15:12:23.811Z,28.90
2019-04-18T15:14:56.527Z,27.80
2019-04-18T15:17:23.985Z,28.70
2019-04-18T15:19:51.028Z,29.20
2019-04-18T15:25:16.067Z,28.40
2019-04-18T15:27:44.762Z,28.40
2019-04-18T15:30:30.436Z,28.20
2019-04-18T15:33:11.744Z,28.40
2019-04-18T15:35:42.779Z,27.50
2019-04-18T15:38:15.983Z,28.70
2019-04-18T15:40:46.490Z,28.30
2019-04-18T15:43:15.028Z,28.00
2019-04-18T15:45:47.848Z,28.00
2019-04-18T15:48:22.903Z,29.20
2019-04-18T15:50:51.745Z,28.10
2019-04-18T15:53:22.768Z,27.40
2019-04-18T15:55:51.678Z,29.00
2019-04-18T15:58:28.261Z,29.10
2019-04-18T16:01:03.644Z,27.90
2019-04-18T16:03:30.820Z,27.50
2019-04-18T16:08:53.677Z,28.20
2019-04-18T16:11:26.237Z,27.30
2019-04-18T16:13:53.539Z,27.30
2019-04-18T16:16:22.872Z,28.00
2019-04-18T16:18:57.667Z,28.50
2019-04-18T16:21:44.372Z,27.20
2019-04-18T16:27:00.507Z,26.60
2019-04-18T16:29:33.658Z,26.30
2019-04-18T16:37:44.547Z,26.40
2019-04-18T16:40:13.023Z,26.70
2019-04-18T16:42:48.906Z,28.30
2019-04-18T16:45:19.207Z,27.10
2019-04-18T16:47:47.006Z,25.90
2019-04-18T16:50:45.115Z,27.30
2019-04-18T16:56:08.074Z,26.20
2019-04-18T16:58:35.909Z,26.00
2019-04-18T17:01:06.368Z,25.90
2019-04-18T17:06:22.403Z,25.50
2019-04-18T17:08:50.239Z,25.10
2019-04-18T17:11:19.698Z,24.60
2019-04-18T17:13:47.978Z,24.20
2019-04-18T17:16:21.542Z,24.10
2019-04-18T17:19:04.163Z,22.90
2019-04-18T17:21:50.559Z,23.40
2019-04-18T17:24:28.811Z,23.10
2019-04-18T17:27:02.066Z,22.40
2019-04-18T17:29:37.315Z,23.20
2019-04-18T17:32:07.443Z,22.10
2019-04-18T17:34:46.962Z,22.60
2019-04-18T17:40:26.758Z,20.20
2019-04-18T17:42:45.095Z,19.90
2019-04-18T17:45:16.808Z,19.40
2019-04-18T17:47:46.446Z,17.60
2019-04-18T17:50:17.932Z,18.70
2019-04-18T17:52:56.648Z,17.70
2019-04-18T17:55:40.939Z,18.00
2019-04-18T17:58:08.699Z,17.20
2019-04-18T18:00:41.360Z,16.90
2019-04-18T18:03:25.024Z,16.10
2019-04-18T18:06:09.691Z,15.40
2019-04-18T18:11:16.752Z,14.60
2019-04-18T18:13:53.290Z,14.10
2019-04-18T18:16:26.832Z,13.30
2019-04-18T18:19:01.602Z,13.60
2019-04-18T18:21:36.858Z,13.20
2019-04-18T18:24:13.742Z,14.60
2019-04-18T18:26:48.487Z,14.40
2019-04-18T18:32:03.402Z,12.50
2019-04-18T18:34:49.569Z,12.50
2019-04-18T18:40:17.458Z,12.40
2019-04-18T18:42:48.244Z,11.10
2019-04-18T18:45:29.107Z,13.70
2019-04-18T18:47:55.438Z,11.90
2019-04-18T18:50:45.800Z,11.50
2019-04-18T18:53:15.358Z,11.50
2019-04-18T18:55:45.701Z,11.30
2019-04-18T18:58:20.540Z,11.30
2019-04-18T19:00:52.931Z,11.20
2019-04-18T19:03:21.435Z,11.80
2019-04-18T19:06:00.769Z,12.60
2019-04-18T19:11:34.009Z,10.60
2019-04-18T19:14:00.583Z,12.00
2019-04-18T19:16:28.558Z,10.60
2019-04-18T19:18:45.387Z,11.70
2019-04-18T19:21:17.878Z,10.30
2019-04-18T19:23:54.951Z,9.50
2019-04-18T19:26:27.891Z,10.20
2019-04-18T19:29:09.606Z,10.10
2019-04-18T19:31:29.254Z,10.80
2019-04-18T19:34:03.110Z,9.70
2019-04-18T19:36:45.904Z,9.70
2019-04-18T19:42:05.164Z,10.40
2019-04-18T19:47:13.820Z,9.40
2019-04-18T19:52:39.491Z,9.30
2019-04-18T19:55:15.272Z,10.60
2019-04-18T19:57:43.648Z,9.30
2019-04-18T20:00:13.585Z,9.20
2019-04-18T20:08:28.589Z,10.20
2019-04-18T20:13:47.328Z,8.80
2019-04-18T20:16:11.786Z,8.20
2019-04-18T20:18:45.473Z,8.60
2019-04-18T20:21:15.954Z,8.50
2019-04-18T20:23:51.304Z,8.50
2019-04-18T20:26:35.759Z,8.40
2019-04-18T20:29:14.637Z,9.40
2019-04-18T20:31:50.760Z,8.40
2019-04-18T20:34:30.951Z,9.10
2019-04-18T20:37:16.915Z,8.30
2019-04-18T20:40:05.266Z,7.80
2019-04-18T20:42:25.095Z,7.10
2019-04-18T20:44:45.541Z,9.00
2019-04-18T20:47:27.038Z,7.60
2019-04-18T20:50:04.108Z,9.00
2019-04-18T20:55:28.177Z,7.90
2019-04-18T21:00:35.443Z,7.50
2019-04-18T21:03:13.593Z,7.40
2019-04-18T21:05:47.378Z,7.50
2019-04-18T21:11:11.716Z,7.30
2019-04-18T21:13:54.793Z,7.00
2019-04-18T21:16:40.711Z,8.20
2019-04-18T21:19:17.254Z,7.20
2019-04-18T21:21:43.845Z,7.40
2019-04-18T21:24:10.505Z,9.00
2019-04-18T21:26:40.089Z,7.50
2019-04-18T21:29:11.656Z,7.30
2019-04-18T21:34:36.807Z,7.20
2019-04-18T21:37:22.805Z,7.10
2019-04-18T21:42:34.494Z,6.90
2019-04-18T21:47:49.465Z,8.20
2019-04-18T21:53:05.300Z,6.50
2019-04-18T21:58:45.111Z,6.50
2019-04-18T22:01:16.542Z,6.50
2019-04-18T22:03:49.334Z,6.40
2019-04-18T22:09:20.520Z,6.60
2019-04-18T22:11:56.958Z,8.00
2019-04-18T22:14:23.128Z,6.50
2019-04-18T22:17:00.500Z,6.60
2019-04-18T22:19:27.071Z,6.60
2019-04-18T22:21:55.191Z,6.10
2019-04-18T22:24:33.641Z,6.40
2019-04-18T22:27:07.441Z,6.90
2019-04-18T22:29:41.348Z,6.80
2019-04-18T22:32:18.298Z,6.60
2019-04-18T22:34:43.762Z,5.20
2019-04-18T22:37:28.921Z,6.50
2019-04-18T22:39:49.080Z,6.40
2019-04-18T22:42:22.236Z,6.10
2019-04-18T22:45:00.403Z,6.30
2019-04-18T22:47:23.531Z,6.30
2019-04-18T22:50:08.618Z,4.70
2019-04-18T22:52:38.090Z,5.90
2019-04-18T23:00:43.070Z,5.90
2019-04-18T23:03:10.352Z,5.70
2019-04-18T23:05:38.402Z,5.80
2019-04-18T23:08:22.744Z,6.70
2019-04-18T23:10:39.766Z,6.00
2019-04-18T23:13:19.173Z,5.70
2019-04-18T23:18:40.810Z,5.60
2019-04-18T23:21:29.086Z,7.00
2019-04-18T23:24:10.925Z,6.60
2019-04-18T23:26:41.238Z,5.50
2019-04-18T23:29:17.475Z,5.30
2019-04-18T23:32:03.962Z,5.20
2019-04-18T23:34:52.350Z,4.90
2019-04-18T23:37:32.701Z,3.70
2019-04-18T23:43:08.244Z,3.90
2019-04-18T23:45:42.259Z,3.90
2019-04-18T23:51:12.818Z,4.00
2019-04-18T23:53:52.768Z,6.10
2019-04-18T23:56:31.315Z,4.20
